sensor_id;sensor_type;location;lat;lon;timestamp;temperature;humidity
15967;DHT22;15175;48.154;11.534;2022-11-20T00:01:17;6.90;99.90
15967;DHT22;15175;48.154;11.534;2022-11-20T00:03:45;6.90;99.90
15967;DHT22;15175;48.154;11.534;2022-11-20T00:06:15;6.90;99.90
15967;DHT22;15175;48.154;11.534;2022-11-20T00:08:43;6.90;99.90
15967;DHT22;15175;48.154;11.534;2022-11-20T00:11:11;6.90;99.90
15967;DHT22;15175;48.154;11.534;2022-11-20T00:13:38;7.00;99.90
15967;DHT22;15175;48.154;11.534;2022-11-20T00:16:07;7.00;99.90
15967;DHT22;15175;48.154;11.534;2022-11-20T00:18:35;7.00;99.90
15967;DHT22;15175;48.154;11.534;2022-11-20T00:21:04;7.00;99.90
15967;DHT22;15175;48.154;11.534;2022-11-20T00:23:33;7.00;99.90
15967;DHT22;15175;48.154;11.534;2022-11-20T00:26:03;7.00;99.90
15967;DHT22;15175;48.154;11.534;2022-11-20T00:28:31;7.00;99.90
15967;DHT22;15175;48.154;11.534;2022-11-20T00:31:02;7.00;99.90
15967;DHT22;15175;48.154;11.534;2022-11-20T00:33:29;7.00;99.90
15967;DHT22;15175;48.154;11.534;2022-11-20T00:36:00;7.10;99.90
15967;DHT22;15175;48.154;11.534;2022-11-20T00:38:27;7.10;99.90
15967;DHT22;15175;48.154;11.534;2022-11-20T00:40:57;7.10;99.90
15967;DHT22;15175;48.154;11.534;2022-11-20T00:43:24;7.10;99.90
15967;DHT22;15175;48.154;11.534;2022-11-20T00:45:57;7.10;99.90
15967;DHT22;15175;48.154;11.534;2022-11-20T00:48:24;7.00;99.90
15967;DHT22;15175;48.154;11.534;2022-11-20T00:50:51;7.10;99.90
15967;DHT22;15175;48.154;11.534;2022-11-20T00:53:19;7.00;99.90
15967;DHT22;15175;48.154;11.534;2022-11-20T00:55:53;7.00;99.90
15967;DHT22;15175;48.154;11.534;2022-11-20T00:58:22;7.00;99.90
15967;DHT22;15175;48.154;11.534;2022-11-20T01:00:50;7.00;99.90
15967;DHT22;15175;48.154;11.534;2022-11-20T01:03:17;7.00;99.90
15967;DHT22;15175;48.154;11.534;2022-11-20T01:05:45;7.00;99.90
15967;DHT22;15175;48.154;11.534;2022-11-20T01:08:12;7.00;99.90
15967;DHT22;15175;48.154;11.534;2022-11-20T01:10:39;7.00;99.90
15967;DHT22;15175;48.154;11.534;2022-11-20T01:13:06;7.00;99.90
15967;DHT22;15175;48.154;11.534;2022-11-20T01:16:02;7.00;99.90
15967;DHT22;15175;48.154;11.534;2022-11-20T01:18:29;7.00;99.90
15967;DHT22;15175;48.154;11.534;2022-11-20T01:21:00;7.00;99.90
15967;DHT22;15175;48.154;11.534;2022-11-20T01:23:30;7.00;99.90
15967;DHT22;15175;48.154;11.534;2022-11-20T01:26:00;7.00;99.90
15967;DHT22;15175;48.154;11.534;2022-11-20T01:28:28;7.00;99.90
15967;DHT22;15175;48.154;11.534;2022-11-20T01:30:57;7.00;99.90
15967;DHT22;15175;48.154;11.534;2022-11-20T01:33:24;7.00;99.90
15967;DHT22;15175;48.154;11.534;2022-11-20T01:35:51;7.00;99.90
15967;DHT22;15175;48.154;11.534;2022-11-20T01:38:18;7.00;99.90
15967;DHT22;15175;48.154;11.534;2022-11-20T01:40:54;7.00;99.90
15967;DHT22;15175;48.154;11.534;2022-11-20T01:43:22;7.10;99.90
15967;DHT22;15175;48.154;11.534;2022-11-20T01:46:26;7.00;99.90
15967;DHT22;15175;48.154;11.534;2022-11-20T01:48:56;7.10;99.90
15967;DHT22;15175;48.154;11.534;2022-11-20T01:51:27;7.10;99.90
15967;DHT22;15175;48.154;11.534;2022-11-20T01:53:58;7.10;99.90
15967;DHT22;15175;48.154;11.534;2022-11-20T01:56:27;7.10;99.90
15967;DHT22;15175;48.154;11.534;2022-11-20T01:58:57;7.10;99.90
15967;DHT22;15175;48.154;11.534;2022-11-20T02:01:28;7.10;99.90
15967;DHT22;15175;48.154;11.534;2022-11-20T02:03:55;7.10;99.90
15967;DHT22;15175;48.154;11.534;2022-11-20T02:06:25;7.10;99.90
15967;DHT22;15175;48.154;11.534;2022-11-20T02:08:54;7.10;99.90
15967;DHT22;15175;48.154;11.534;2022-11-20T02:11:21;7.10;99.90
15967;DHT22;15175;48.154;11.534;2022-11-20T02:13:48;7.10;99.90
15967;DHT22;15175;48.154;11.534;2022-11-20T02:16:19;7.10;99.90
15967;DHT22;15175;48.154;11.534;2022-11-20T02:18:48;7.00;99.90
15967;DHT22;15175;48.154;11.534;2022-11-20T02:21:28;7.00;99.90
15967;DHT22;15175;48.154;11.534;2022-11-20T02:24:09;7.00;99.90
15967;DHT22;15175;48.154;11.534;2022-11-20T02:26:42;7.00;99.90
15967;DHT22;15175;48.154;11.534;2022-11-20T02:29:11;7.00;99.90
15967;DHT22;15175;48.154;11.534;2022-11-20T02:31:40;7.00;99.90
15967;DHT22;15175;48.154;11.534;2022-11-20T02:34:07;7.00;99.90
15967;DHT22;15175;48.154;11.534;2022-11-20T02:36:36;7.00;99.90
15967;DHT22;15175;48.154;11.534;2022-11-20T02:39:04;7.00;99.90
15967;DHT22;15175;48.154;11.534;2022-11-20T02:41:37;7.00;99.90
15967;DHT22;15175;48.154;11.534;2022-11-20T02:44:05;7.00;99.90
15967;DHT22;15175;48.154;11.534;2022-11-20T02:46:33;7.00;99.90
15967;DHT22;15175;48.154;11.534;2022-11-20T02:49:01;7.00;99.90
15967;DHT22;15175;48.154;11.534;2022-11-20T02:51:29;7.00;99.90
15967;DHT22;15175;48.154;11.534;2022-11-20T02:53:56;7.00;99.90
15967;DHT22;15175;48.154;11.534;2022-11-20T02:56:24;7.00;99.90
15967;DHT22;15175;48.154;11.534;2022-11-20T02:58:53;7.00;99.90
15967;DHT22;15175;48.154;11.534;2022-11-20T03:01:20;7.00;99.90
15967;DHT22;15175;48.154;11.534;2022-11-20T03:03:47;7.00;99.90
15967;DHT22;15175;48.154;11.534;2022-11-20T03:06:15;7.00;99.90
15967;DHT22;15175;48.154;11.534;2022-11-20T03:08:42;6.90;99.90
15967;DHT22;15175;48.154;11.534;2022-11-20T03:11:09;6.90;99.90
15967;DHT22;15175;48.154;11.534;2022-11-20T03:13:37;6.90;99.90
15967;DHT22;15175;48.154;11.534;2022-11-20T03:16:13;7.00;99.90
15967;DHT22;15175;48.154;11.534;2022-11-20T03:18:41;7.00;99.90
15967;DHT22;15175;48.154;11.534;2022-11-20T03:21:09;6.90;99.90
15967;DHT22;15175;48.154;11.534;2022-11-20T03:23:37;6.90;99.90
15967;DHT22;15175;48.154;11.534;2022-11-20T03:26:09;6.90;99.90
15967;DHT22;15175;48.154;11.534;2022-11-20T03:28:37;6.90;99.90
15967;DHT22;15175;48.154;11.534;2022-11-20T03:31:08;6.90;99.90
15967;DHT22;15175;48.154;11.534;2022-11-20T03:33:38;6.90;99.90
15967;DHT22;15175;48.154;11.534;2022-11-20T03:36:06;6.90;99.90
15967;DHT22;15175;48.154;11.534;2022-11-20T03:38:34;6.90;99.90
15967;DHT22;15175;48.154;11.534;2022-11-20T03:41:01;6.90;99.90
15967;DHT22;15175;48.154;11.534;2022-11-20T03:43:29;7.00;99.90
15967;DHT22;15175;48.154;11.534;2022-11-20T03:45:56;7.00;99.90
15967;DHT22;15175;48.154;11.534;2022-11-20T03:48:24;7.00;99.90
15967;DHT22;15175;48.154;11.534;2022-11-20T03:50:54;7.00;99.90
15967;DHT22;15175;48.154;11.534;2022-11-20T03:53:32;6.90;99.90
15967;DHT22;15175;48.154;11.534;2022-11-20T03:55:59;6.90;99.90
15967;DHT22;15175;48.154;11.534;2022-11-20T03:58:26;6.90;99.90
15967;DHT22;15175;48.154;11.534;2022-11-20T04:00:53;6.90;99.90
15967;DHT22;15175;48.154;11.534;2022-11-20T04:03:20;6.90;99.90
15967;DHT22;15175;48.154;11.534;2022-11-20T04:05:47;6.90;99.90
15967;DHT22;15175;48.154;11.534;2022-11-20T04:08:16;6.90;99.90
15967;DHT22;15175;48.154;11.534;2022-11-20T04:10:43;6.90;99.90
15967;DHT22;15175;48.154;11.534;2022-11-20T04:13:10;6.90;99.90
15967;DHT22;15175;48.154;11.534;2022-11-20T04:15:37;6.90;99.90
15967;DHT22;15175;48.154;11.534;2022-11-20T04:18:04;7.00;99.90
15967;DHT22;15175;48.154;11.534;2022-11-20T04:20:31;6.90;99.90
15967;DHT22;15175;48.154;11.534;2022-11-20T04:22:58;6.90;99.90
15967;DHT22;15175;48.154;11.534;2022-11-20T04:25:27;6.90;99.90
15967;DHT22;15175;48.154;11.534;2022-11-20T04:27:54;6.90;99.90
15967;DHT22;15175;48.154;11.534;2022-11-20T04:30:21;6.90;99.90
15967;DHT22;15175;48.154;11.534;2022-11-20T04:32:48;6.90;99.90
15967;DHT22;15175;48.154;11.534;2022-11-20T04:35:15;6.90;99.90
15967;DHT22;15175;48.154;11.534;2022-11-20T04:37:42;6.90;99.90
15967;DHT22;15175;48.154;11.534;2022-11-20T04:40:10;6.90;99.90
15967;DHT22;15175;48.154;11.534;2022-11-20T04:42:39;6.90;99.90
15967;DHT22;15175;48.154;11.534;2022-11-20T04:45:06;6.90;99.90
15967;DHT22;15175;48.154;11.534;2022-11-20T04:47:33;6.90;99.90
15967;DHT22;15175;48.154;11.534;2022-11-20T04:50:00;7.00;99.90
15967;DHT22;15175;48.154;11.534;2022-11-20T04:52:27;6.90;99.90
15967;DHT22;15175;48.154;11.534;2022-11-20T04:54:54;7.00;99.90
15967;DHT22;15175;48.154;11.534;2022-11-20T04:57:22;7.00;99.90
15967;DHT22;15175;48.154;11.534;2022-11-20T04:59:50;7.00;99.90
15967;DHT22;15175;48.154;11.534;2022-11-20T05:02:17;7.00;99.90
15967;DHT22;15175;48.154;11.534;2022-11-20T05:04:44;7.00;99.90
15967;DHT22;15175;48.154;11.534;2022-11-20T05:07:11;7.00;99.90
15967;DHT22;15175;48.154;11.534;2022-11-20T05:09:38;7.00;99.90
15967;DHT22;15175;48.154;11.534;2022-11-20T05:12:07;7.00;99.90
15967;DHT22;15175;48.154;11.534;2022-11-20T05:14:34;7.00;99.90
15967;DHT22;15175;48.154;11.534;2022-11-20T05:17:02;7.00;99.90
15967;DHT22;15175;48.154;11.534;2022-11-20T05:19:29;7.00;99.90
15967;DHT22;15175;48.154;11.534;2022-11-20T05:21:56;7.00;99.90
15967;DHT22;15175;48.154;11.534;2022-11-20T05:24:23;7.00;99.90
15967;DHT22;15175;48.154;11.534;2022-11-20T05:26:50;7.00;99.90
15967;DHT22;15175;48.154;11.534;2022-11-20T05:29:18;7.00;99.90
15967;DHT22;15175;48.154;11.534;2022-11-20T05:31:45;7.10;99.90
15967;DHT22;15175;48.154;11.534;2022-11-20T05:34:13;7.00;99.90
15967;DHT22;15175;48.154;11.534;2022-11-20T05:36:40;7.00;99.90
15967;DHT22;15175;48.154;11.534;2022-11-20T05:39:07;7.00;99.90
15967;DHT22;15175;48.154;11.534;2022-11-20T05:41:35;7.00;99.90
15967;DHT22;15175;48.154;11.534;2022-11-20T05:44:02;6.90;99.90
15967;DHT22;15175;48.154;11.534;2022-11-20T05:46:29;6.90;99.90
15967;DHT22;15175;48.154;11.534;2022-11-20T05:48:57;6.90;99.90
15967;DHT22;15175;48.154;11.534;2022-11-20T05:51:27;6.90;99.90
15967;DHT22;15175;48.154;11.534;2022-11-20T05:53:56;6.90;99.90
15967;DHT22;15175;48.154;11.534;2022-11-20T05:56:24;6.90;99.90
15967;DHT22;15175;48.154;11.534;2022-11-20T05:58:51;6.90;99.90
15967;DHT22;15175;48.154;11.534;2022-11-20T06:01:19;6.90;99.90
15967;DHT22;15175;48.154;11.534;2022-11-20T06:03:47;6.90;99.90
15967;DHT22;15175;48.154;11.534;2022-11-20T06:06:17;6.90;99.90
15967;DHT22;15175;48.154;11.534;2022-11-20T06:08:46;6.90;99.90
15967;DHT22;15175;48.154;11.534;2022-11-20T06:11:14;6.80;99.90
15967;DHT22;15175;48.154;11.534;2022-11-20T06:13:42;6.80;99.90
15967;DHT22;15175;48.154;11.534;2022-11-20T06:16:09;6.80;99.90
15967;DHT22;15175;48.154;11.534;2022-11-20T06:18:37;6.80;99.90
15967;DHT22;15175;48.154;11.534;2022-11-20T06:21:06;6.80;99.90
15967;DHT22;15175;48.154;11.534;2022-11-20T06:23:34;6.80;99.90
15967;DHT22;15175;48.154;11.534;2022-11-20T06:26:04;6.70;99.90
15967;DHT22;15175;48.154;11.534;2022-11-20T06:28:31;6.70;99.90
15967;DHT22;15175;48.154;11.534;2022-11-20T06:30:59;6.70;99.90
15967;DHT22;15175;48.154;11.534;2022-11-20T06:33:26;6.70;99.90
15967;DHT22;15175;48.154;11.534;2022-11-20T06:35:56;6.70;99.90
15967;DHT22;15175;48.154;11.534;2022-11-20T06:38:23;6.70;99.90
15967;DHT22;15175;48.154;11.534;2022-11-20T06:40:50;6.70;99.90
15967;DHT22;15175;48.154;11.534;2022-11-20T06:43:19;6.70;99.90
15967;DHT22;15175;48.154;11.534;2022-11-20T06:45:46;6.70;99.90
15967;DHT22;15175;48.154;11.534;2022-11-20T06:48:13;6.70;99.90
15967;DHT22;15175;48.154;11.534;2022-11-20T06:50:40;6.70;99.90
15967;DHT22;15175;48.154;11.534;2022-11-20T06:53:06;6.70;99.90
15967;DHT22;15175;48.154;11.534;2022-11-20T06:55:33;6.70;99.90
15967;DHT22;15175;48.154;11.534;2022-11-20T06:58:01;6.70;99.90
15967;DHT22;15175;48.154;11.534;2022-11-20T07:00:29;6.70;99.90
15967;DHT22;15175;48.154;11.534;2022-11-20T07:02:56;6.70;99.90
15967;DHT22;15175;48.154;11.534;2022-11-20T07:05:23;6.70;99.90
15967;DHT22;15175;48.154;11.534;2022-11-20T07:07:50;6.80;99.90
15967;DHT22;15175;48.154;11.534;2022-11-20T07:10:17;6.80;99.90
15967;DHT22;15175;48.154;11.534;2022-11-20T07:12:49;6.80;99.90
15967;DHT22;15175;48.154;11.534;2022-11-20T07:15:16;6.80;99.90
15967;DHT22;15175;48.154;11.534;2022-11-20T07:17:44;6.80;99.90
15967;DHT22;15175;48.154;11.534;2022-11-20T07:20:12;6.80;99.90
15967;DHT22;15175;48.154;11.534;2022-11-20T07:22:39;6.80;99.90
15967;DHT22;15175;48.154;11.534;2022-11-20T07:25:07;6.80;99.90
15967;DHT22;15175;48.154;11.534;2022-11-20T07:27:34;6.80;99.90
15967;DHT22;15175;48.154;11.534;2022-11-20T07:30:02;6.90;99.90
15967;DHT22;15175;48.154;11.534;2022-11-20T07:32:30;6.80;99.90
15967;DHT22;15175;48.154;11.534;2022-11-20T07:34:58;6.80;99.90
15967;DHT22;15175;48.154;11.534;2022-11-20T07:37:25;6.80;99.90
15967;DHT22;15175;48.154;11.534;2022-11-20T07:39:52;6.80;99.90
15967;DHT22;15175;48.154;11.534;2022-11-20T07:42:19;6.80;99.90
15967;DHT22;15175;48.154;11.534;2022-11-20T07:44:49;6.90;99.90
15967;DHT22;15175;48.154;11.534;2022-11-20T07:47:16;6.90;99.90
15967;DHT22;15175;48.154;11.534;2022-11-20T07:49:43;6.90;99.90
15967;DHT22;15175;48.154;11.534;2022-11-20T07:52:19;6.90;99.90
15967;DHT22;15175;48.154;11.534;2022-11-20T07:54:46;6.90;99.90
15967;DHT22;15175;48.154;11.534;2022-11-20T07:57:13;6.90;99.90
15967;DHT22;15175;48.154;11.534;2022-11-20T07:59:40;6.90;99.90
15967;DHT22;15175;48.154;11.534;2022-11-20T08:02:10;6.90;99.90
15967;DHT22;15175;48.154;11.534;2022-11-20T08:04:37;7.00;99.90
15967;DHT22;15175;48.154;11.534;2022-11-20T08:07:04;7.00;99.90
15967;DHT22;15175;48.154;11.534;2022-11-20T08:09:32;7.00;99.90
15967;DHT22;15175;48.154;11.534;2022-11-20T08:11:59;7.00;99.90
15967;DHT22;15175;48.154;11.534;2022-11-20T08:14:44;7.00;99.90
15967;DHT22;15175;48.154;11.534;2022-11-20T08:17:11;7.00;99.90
15967;DHT22;15175;48.154;11.534;2022-11-20T08:19:38;7.10;99.90
15967;DHT22;15175;48.154;11.534;2022-11-20T08:22:05;7.00;99.90
15967;DHT22;15175;48.154;11.534;2022-11-20T08:24:34;7.00;99.90
15967;DHT22;15175;48.154;11.534;2022-11-20T08:27:01;7.00;99.90
15967;DHT22;15175;48.154;11.534;2022-11-20T08:29:28;7.00;99.90
15967;DHT22;15175;48.154;11.534;2022-11-20T08:31:55;7.10;99.90
15967;DHT22;15175;48.154;11.534;2022-11-20T08:34:22;7.10;99.90
15967;DHT22;15175;48.154;11.534;2022-11-20T08:36:49;7.10;99.90
15967;DHT22;15175;48.154;11.534;2022-11-20T08:39:16;7.10;99.90
15967;DHT22;15175;48.154;11.534;2022-11-20T08:41:45;7.10;99.90
15967;DHT22;15175;48.154;11.534;2022-11-20T08:44:12;7.10;99.90
15967;DHT22;15175;48.154;11.534;2022-11-20T08:46:40;7.10;99.90
15967;DHT22;15175;48.154;11.534;2022-11-20T08:49:10;7.20;99.90
15967;DHT22;15175;48.154;11.534;2022-11-20T08:51:38;7.20;99.90
15967;DHT22;15175;48.154;11.534;2022-11-20T08:54:05;7.20;99.90
15967;DHT22;15175;48.154;11.534;2022-11-20T08:56:32;7.30;99.90
15967;DHT22;15175;48.154;11.534;2022-11-20T08:59:01;7.30;99.90
15967;DHT22;15175;48.154;11.534;2022-11-20T09:01:29;7.30;99.90
15967;DHT22;15175;48.154;11.534;2022-11-20T09:03:56;7.30;99.90
15967;DHT22;15175;48.154;11.534;2022-11-20T09:06:23;7.30;99.90
15967;DHT22;15175;48.154;11.534;2022-11-20T09:08:52;7.30;99.90
15967;DHT22;15175;48.154;11.534;2022-11-20T09:11:19;7.30;99.90
15967;DHT22;15175;48.154;11.534;2022-11-20T09:13:46;7.30;99.90
15967;DHT22;15175;48.154;11.534;2022-11-20T09:16:14;7.30;99.90
15967;DHT22;15175;48.154;11.534;2022-11-20T09:18:41;7.30;99.90
15967;DHT22;15175;48.154;11.534;2022-11-20T09:21:11;7.30;99.90
15967;DHT22;15175;48.154;11.534;2022-11-20T09:23:39;7.40;99.90
15967;DHT22;15175;48.154;11.534;2022-11-20T09:26:08;7.40;99.90
15967;DHT22;15175;48.154;11.534;2022-11-20T09:28:35;7.40;99.90
15967;DHT22;15175;48.154;11.534;2022-11-20T09:31:05;7.40;99.90
15967;DHT22;15175;48.154;11.534;2022-11-20T09:33:33;7.40;99.90
15967;DHT22;15175;48.154;11.534;2022-11-20T09:36:01;7.50;99.90
15967;DHT22;15175;48.154;11.534;2022-11-20T09:38:28;7.50;99.90
15967;DHT22;15175;48.154;11.534;2022-11-20T09:40:57;7.60;99.90
15967;DHT22;15175;48.154;11.534;2022-11-20T09:43:32;7.60;99.90
15967;DHT22;15175;48.154;11.534;2022-11-20T09:46:09;7.60;99.90
15967;DHT22;15175;48.154;11.534;2022-11-20T09:48:51;7.60;99.90
15967;DHT22;15175;48.154;11.534;2022-11-20T09:51:31;7.70;99.90
15967;DHT22;15175;48.154;11.534;2022-11-20T09:54:13;7.70;99.90
15967;DHT22;15175;48.154;11.534;2022-11-20T09:56:45;7.80;99.90
15967;DHT22;15175;48.154;11.534;2022-11-20T09:59:22;7.80;99.90
15967;DHT22;15175;48.154;11.534;2022-11-20T10:01:53;7.80;99.90
15967;DHT22;15175;48.154;11.534;2022-11-20T10:04:22;7.90;99.90
15967;DHT22;15175;48.154;11.534;2022-11-20T10:07:04;7.90;99.90
15967;DHT22;15175;48.154;11.534;2022-11-20T10:09:36;8.00;99.90
15967;DHT22;15175;48.154;11.534;2022-11-20T10:12:13;8.10;99.90
15967;DHT22;15175;48.154;11.534;2022-11-20T10:14:52;8.10;99.90
15967;DHT22;15175;48.154;11.534;2022-11-20T10:17:30;8.20;99.90
15967;DHT22;15175;48.154;11.534;2022-11-20T10:20:14;8.30;99.90
15967;DHT22;15175;48.154;11.534;2022-11-20T10:23:00;8.30;99.90
15967;DHT22;15175;48.154;11.534;2022-11-20T10:25:37;8.30;99.90
15967;DHT22;15175;48.154;11.534;2022-11-20T10:28:25;8.30;99.90
15967;DHT22;15175;48.154;11.534;2022-11-20T10:31:00;8.30;99.90
15967;DHT22;15175;48.154;11.534;2022-11-20T10:33:32;8.30;99.90
15967;DHT22;15175;48.154;11.534;2022-11-20T10:36:11;8.30;99.90
15967;DHT22;15175;48.154;11.534;2022-11-20T10:38:44;8.30;99.90
15967;DHT22;15175;48.154;11.534;2022-11-20T10:41:24;8.30;99.90
15967;DHT22;15175;48.154;11.534;2022-11-20T10:43:57;8.30;99.90
15967;DHT22;15175;48.154;11.534;2022-11-20T10:46:32;8.30;99.90
15967;DHT22;15175;48.154;11.534;2022-11-20T10:49:14;8.40;99.90
15967;DHT22;15175;48.154;11.534;2022-11-20T10:51:53;8.40;99.90
15967;DHT22;15175;48.154;11.534;2022-11-20T10:54:31;8.40;99.90
15967;DHT22;15175;48.154;11.534;2022-11-20T10:57:04;8.50;99.90
15967;DHT22;15175;48.154;11.534;2022-11-20T10:59:41;8.50;99.90
15967;DHT22;15175;48.154;11.534;2022-11-20T11:02:18;8.50;99.90
15967;DHT22;15175;48.154;11.534;2022-11-20T11:04:46;8.50;99.90
15967;DHT22;15175;48.154;11.534;2022-11-20T11:07:19;8.50;99.90
15967;DHT22;15175;48.154;11.534;2022-11-20T11:09:49;8.50;99.90
15967;DHT22;15175;48.154;11.534;2022-11-20T11:12:16;8.50;99.90
15967;DHT22;15175;48.154;11.534;2022-11-20T11:14:46;8.50;99.90
15967;DHT22;15175;48.154;11.534;2022-11-20T11:17:25;8.50;99.90
15967;DHT22;15175;48.154;11.534;2022-11-20T11:20:03;8.60;99.90
15967;DHT22;15175;48.154;11.534;2022-11-20T11:22:34;8.50;99.90
15967;DHT22;15175;48.154;11.534;2022-11-20T11:25:19;8.50;99.90
15967;DHT22;15175;48.154;11.534;2022-11-20T11:27:47;8.50;99.90
15967;DHT22;15175;48.154;11.534;2022-11-20T11:30:16;8.50;99.90
15967;DHT22;15175;48.154;11.534;2022-11-20T11:32:43;8.50;99.90
15967;DHT22;15175;48.154;11.534;2022-11-20T11:35:26;8.50;99.90
15967;DHT22;15175;48.154;11.534;2022-11-20T11:38:03;8.60;99.90
15967;DHT22;15175;48.154;11.534;2022-11-20T11:40:32;8.50;99.90
15967;DHT22;15175;48.154;11.534;2022-11-20T11:43:02;8.60;99.90
15967;DHT22;15175;48.154;11.534;2022-11-20T11:45:31;8.50;99.90
15967;DHT22;15175;48.154;11.534;2022-11-20T11:47:58;8.60;99.90
15967;DHT22;15175;48.154;11.534;2022-11-20T11:50:28;8.60;99.90
15967;DHT22;15175;48.154;11.534;2022-11-20T11:53:09;8.60;99.90
15967;DHT22;15175;48.154;11.534;2022-11-20T11:55:40;8.60;99.90
15967;DHT22;15175;48.154;11.534;2022-11-20T11:58:16;8.60;99.90
15967;DHT22;15175;48.154;11.534;2022-11-20T12:00:52;8.60;99.90
15967;DHT22;15175;48.154;11.534;2022-11-20T12:03:27;8.60;99.90
15967;DHT22;15175;48.154;11.534;2022-11-20T12:05:57;8.60;99.90
15967;DHT22;15175;48.154;11.534;2022-11-20T12:08:31;8.50;99.90
15967;DHT22;15175;48.154;11.534;2022-11-20T12:11:04;8.50;99.90
15967;DHT22;15175;48.154;11.534;2022-11-20T12:13:48;8.40;99.90
15967;DHT22;15175;48.154;11.534;2022-11-20T12:16:18;8.40;99.90
15967;DHT22;15175;48.154;11.534;2022-11-20T12:18:49;8.30;99.90
15967;DHT22;15175;48.154;11.534;2022-11-20T12:21:19;8.30;99.90
15967;DHT22;15175;48.154;11.534;2022-11-20T12:24:06;8.20;99.90
15967;DHT22;15175;48.154;11.534;2022-11-20T12:26:51;8.20;99.90
15967;DHT22;15175;48.154;11.534;2022-11-20T12:29:29;8.10;99.90
15967;DHT22;15175;48.154;11.534;2022-11-20T12:32:17;8.10;99.90
15967;DHT22;15175;48.154;11.534;2022-11-20T12:34:56;8.10;99.90
15967;DHT22;15175;48.154;11.534;2022-11-20T12:37:36;8.10;99.90
15967;DHT22;15175;48.154;11.534;2022-11-20T12:40:24;8.10;99.90
15967;DHT22;15175;48.154;11.534;2022-11-20T12:43:05;8.10;99.90
15967;DHT22;15175;48.154;11.534;2022-11-20T12:46:23;8.00;99.90
15967;DHT22;15175;48.154;11.534;2022-11-20T12:49:15;8.10;99.90
15967;DHT22;15175;48.154;11.534;2022-11-20T12:52:13;8.00;99.90
15967;DHT22;15175;48.154;11.534;2022-11-20T12:55:01;8.00;99.90
15967;DHT22;15175;48.154;11.534;2022-11-20T12:57:35;8.00;99.90
15967;DHT22;15175;48.154;11.534;2022-11-20T13:00:12;8.00;99.90
15967;DHT22;15175;48.154;11.534;2022-11-20T13:03:23;8.00;99.90
15967;DHT22;15175;48.154;11.534;2022-11-20T13:05:56;8.00;99.90
15967;DHT22;15175;48.154;11.534;2022-11-20T13:08:28;8.00;99.90
15967;DHT22;15175;48.154;11.534;2022-11-20T13:11:01;7.90;99.90
15967;DHT22;15175;48.154;11.534;2022-11-20T13:13:41;7.90;99.90
15967;DHT22;15175;48.154;11.534;2022-11-20T13:16:15;7.80;99.90
15967;DHT22;15175;48.154;11.534;2022-11-20T13:18:43;7.80;99.90
15967;DHT22;15175;48.154;11.534;2022-11-20T13:21:15;7.80;99.90
15967;DHT22;15175;48.154;11.534;2022-11-20T13:23:42;7.80;99.90
15967;DHT22;15175;48.154;11.534;2022-11-20T13:26:18;7.80;99.90
15967;DHT22;15175;48.154;11.534;2022-11-20T13:28:48;7.80;99.90
15967;DHT22;15175;48.154;11.534;2022-11-20T13:31:30;7.70;99.90
15967;DHT22;15175;48.154;11.534;2022-11-20T13:33:58;7.70;99.90
15967;DHT22;15175;48.154;11.534;2022-11-20T13:36:28;7.70;99.90
15967;DHT22;15175;48.154;11.534;2022-11-20T13:38:56;7.70;99.90
15967;DHT22;15175;48.154;11.534;2022-11-20T13:41:24;7.70;99.90
15967;DHT22;15175;48.154;11.534;2022-11-20T13:43:59;7.70;99.90
15967;DHT22;15175;48.154;11.534;2022-11-20T13:46:36;7.70;99.90
15967;DHT22;15175;48.154;11.534;2022-11-20T13:49:08;7.70;99.90
15967;DHT22;15175;48.154;11.534;2022-11-20T13:51:41;7.70;99.90
15967;DHT22;15175;48.154;11.534;2022-11-20T14:00:25;7.70;99.90
15967;DHT22;15175;48.154;11.534;2022-11-20T14:03:02;7.70;99.90
15967;DHT22;15175;48.154;11.534;2022-11-20T14:05:36;7.70;99.90
15967;DHT22;15175;48.154;11.534;2022-11-20T14:08:06;7.70;99.90
15967;DHT22;15175;48.154;11.534;2022-11-20T14:10:38;7.70;99.90
15967;DHT22;15175;48.154;11.534;2022-11-20T14:13:15;7.70;99.90
15967;DHT22;15175;48.154;11.534;2022-11-20T14:15:43;7.80;99.90
15967;DHT22;15175;48.154;11.534;2022-11-20T14:18:21;7.80;99.90
15967;DHT22;15175;48.154;11.534;2022-11-20T14:20:48;7.80;99.90
15967;DHT22;15175;48.154;11.534;2022-11-20T14:23:23;7.80;99.90
15967;DHT22;15175;48.154;11.534;2022-11-20T14:25:51;7.80;99.90
15967;DHT22;15175;48.154;11.534;2022-11-20T14:28:25;7.70;99.90
15967;DHT22;15175;48.154;11.534;2022-11-20T14:30:54;7.70;99.90
15967;DHT22;15175;48.154;11.534;2022-11-20T14:33:22;7.70;99.90
15967;DHT22;15175;48.154;11.534;2022-11-20T14:35:52;7.70;99.90
15967;DHT22;15175;48.154;11.534;2022-11-20T14:38:23;7.70;99.90
15967;DHT22;15175;48.154;11.534;2022-11-20T14:40:51;7.80;99.90
15967;DHT22;15175;48.154;11.534;2022-11-20T14:43:21;7.70;99.90
15967;DHT22;15175;48.154;11.534;2022-11-20T14:45:57;7.80;99.90
15967;DHT22;15175;48.154;11.534;2022-11-20T14:48:29;7.80;99.90
15967;DHT22;15175;48.154;11.534;2022-11-20T14:50:58;7.70;99.90
15967;DHT22;15175;48.154;11.534;2022-11-20T14:53:26;7.70;99.90
15967;DHT22;15175;48.154;11.534;2022-11-20T14:56:01;7.70;99.90
15967;DHT22;15175;48.154;11.534;2022-11-20T14:58:31;7.70;99.90
15967;DHT22;15175;48.154;11.534;2022-11-20T15:01:01;7.70;99.90
15967;DHT22;15175;48.154;11.534;2022-11-20T15:03:33;7.70;99.90
15967;DHT22;15175;48.154;11.534;2022-11-20T15:06:01;7.60;99.90
15967;DHT22;15175;48.154;11.534;2022-11-20T15:08:28;7.60;99.90
15967;DHT22;15175;48.154;11.534;2022-11-20T15:10:55;7.60;99.90
15967;DHT22;15175;48.154;11.534;2022-11-20T15:13:29;7.60;99.90
15967;DHT22;15175;48.154;11.534;2022-11-20T15:15:57;7.60;99.90
15967;DHT22;15175;48.154;11.534;2022-11-20T15:18:28;7.60;99.90
15967;DHT22;15175;48.154;11.534;2022-11-20T15:20:58;7.60;99.90
15967;DHT22;15175;48.154;11.534;2022-11-20T15:23:28;7.60;99.90
15967;DHT22;15175;48.154;11.534;2022-11-20T15:25:56;7.60;99.90
15967;DHT22;15175;48.154;11.534;2022-11-20T15:28:29;7.60;99.90
15967;DHT22;15175;48.154;11.534;2022-11-20T15:30:57;7.60;99.90
15967;DHT22;15175;48.154;11.534;2022-11-20T15:33:24;7.60;99.90
15967;DHT22;15175;48.154;11.534;2022-11-20T15:35:52;7.60;99.90
15967;DHT22;15175;48.154;11.534;2022-11-20T15:38:19;7.60;99.90
15967;DHT22;15175;48.154;11.534;2022-11-20T15:40:46;7.50;99.90
15967;DHT22;15175;48.154;11.534;2022-11-20T15:43:13;7.50;99.90
15967;DHT22;15175;48.154;11.534;2022-11-20T15:45:43;7.50;99.90
15967;DHT22;15175;48.154;11.534;2022-11-20T15:48:14;7.50;99.90
15967;DHT22;15175;48.154;11.534;2022-11-20T15:50:47;7.50;99.90
15967;DHT22;15175;48.154;11.534;2022-11-20T15:53:17;7.40;99.90
15967;DHT22;15175;48.154;11.534;2022-11-20T15:55:44;7.40;99.90
15967;DHT22;15175;48.154;11.534;2022-11-20T15:58:11;7.40;99.90